Terminal Aerodrome Forecast
Issued by NWS

Home | Current Version | Previous Version | Text Only | Print | Product List | Glossary On
Versions: 1 2 3 4 5 6 7 8 9 10 11 12
000
FTUS45 KREV 260123 RRA
TAFTVL
TAF
KTVL 260123Z 2601/2624 20006KT P6SM FEW140
     FM260500 VRB03KT P6SM SKC
     FM261700 19011KT P6SM FEW070
     FM262200 20014G24KT P6SM SCT070=

USA.gov is the U.S. government's official web portal to all federal, state and local government web resources and services.